Nett River, Minnesota
Current Conditions -  °F | °C
As of 12:09 AM on Monday 22 Dec 2014 (Local Time) from KVWU Reporting Station
Overcast Overcast  
Wind Chill: 34°   Ceiling: 700
Heat Index: 34°   Visibility: 10mi
Dew Point: 32°   Wind: 0mph
Humidity: 93%   Direction: NA
Pressure: 29.62"   Gusts: NA
Location:  48.1809°N, 93.8949°W
Report Text: KVWU 220609Z AUTO 00000KT 10SM OVC007 01/00 A2962 RMK AO2
Loading
Personal Weather Stations






























Interactive Weather Map New forecast layout! Learn more

10-Day Weather Forecast

Advertisements
Track Severe Weather on mobile